sensor_id;sensor_type;location;lat;lon;timestamp;P1;durP1;ratioP1;P2;durP2;ratioP2
428;SDS011;201;48.758;9.290;2023-01-08T00:00:06;9.43;;;8.20;;
428;SDS011;201;48.758;9.290;2023-01-08T00:02:33;13.60;;;9.50;;
428;SDS011;201;48.758;9.290;2023-01-08T00:04:58;11.30;;;9.10;;
428;SDS011;201;48.758;9.290;2023-01-08T00:07:24;12.00;;;8.80;;
428;SDS011;201;48.758;9.290;2023-01-08T00:09:49;13.90;;;8.80;;
428;SDS011;201;48.758;9.290;2023-01-08T00:12:16;13.27;;;8.33;;
428;SDS011;201;48.758;9.290;2023-01-08T00:14:41;12.30;;;8.47;;
428;SDS011;201;48.758;9.290;2023-01-08T00:17:07;12.40;;;8.83;;
428;SDS011;201;48.758;9.290;2023-01-08T00:19:32;13.43;;;9.87;;
428;SDS011;201;48.758;9.290;2023-01-08T00:21:58;12.57;;;8.80;;
428;SDS011;201;48.758;9.290;2023-01-08T00:24:23;14.93;;;9.43;;
428;SDS011;201;48.758;9.290;2023-01-08T00:26:49;11.70;;;9.70;;
428;SDS011;201;48.758;9.290;2023-01-08T00:29:14;12.30;;;8.93;;
428;SDS011;201;48.758;9.290;2023-01-08T00:31:40;13.67;;;9.60;;
428;SDS011;201;48.758;9.290;2023-01-08T00:34:05;12.30;;;9.37;;
428;SDS011;201;48.758;9.290;2023-01-08T00:36:31;12.47;;;9.30;;
428;SDS011;201;48.758;9.290;2023-01-08T00:38:57;11.13;;;8.37;;
428;SDS011;201;48.758;9.290;2023-01-08T00:41:23;9.53;;;8.67;;
428;SDS011;201;48.758;9.290;2023-01-08T00:43:49;10.80;;;8.80;;
428;SDS011;201;48.758;9.290;2023-01-08T00:46:14;11.37;;;9.17;;
428;SDS011;201;48.758;9.290;2023-01-08T00:48:40;13.20;;;9.30;;
428;SDS011;201;48.758;9.290;2023-01-08T00:51:06;10.30;;;8.20;;
428;SDS011;201;48.758;9.290;2023-01-08T00:53:32;9.87;;;8.07;;
428;SDS011;201;48.758;9.290;2023-01-08T00:56:02;8.70;;;8.20;;
428;SDS011;201;48.758;9.290;2023-01-08T00:58:29;10.13;;;8.20;;
428;SDS011;201;48.758;9.290;2023-01-08T01:00:55;10.50;;;9.20;;
428;SDS011;201;48.758;9.290;2023-01-08T01:03:20;11.20;;;9.40;;
428;SDS011;201;48.758;9.290;2023-01-08T01:05:46;11.80;;;8.10;;
428;SDS011;201;48.758;9.290;2023-01-08T01:08:11;9.80;;;8.30;;
428;SDS011;201;48.758;9.290;2023-01-08T01:10:38;11.20;;;9.40;;
428;SDS011;201;48.758;9.290;2023-01-08T01:13:03;10.80;;;8.50;;
428;SDS011;201;48.758;9.290;2023-01-08T01:15:29;9.20;;;7.63;;
428;SDS011;201;48.758;9.290;2023-01-08T01:17:55;12.83;;;8.30;;
428;SDS011;201;48.758;9.290;2023-01-08T01:20:21;9.73;;;8.40;;
428;SDS011;201;48.758;9.290;2023-01-08T01:22:47;9.47;;;8.17;;
428;SDS011;201;48.758;9.290;2023-01-08T01:25:13;9.20;;;8.17;;
428;SDS011;201;48.758;9.290;2023-01-08T01:27:39;9.50;;;8.40;;
428;SDS011;201;48.758;9.290;2023-01-08T01:30:05;12.17;;;9.97;;
428;SDS011;201;48.758;9.290;2023-01-08T01:32:31;9.85;;;9.02;;
428;SDS011;201;48.758;9.290;2023-01-08T01:34:57;10.80;;;9.23;;
428;SDS011;201;48.758;9.290;2023-01-08T01:37:23;12.50;;;9.10;;
428;SDS011;201;48.758;9.290;2023-01-08T01:39:48;12.03;;;8.63;;
428;SDS011;201;48.758;9.290;2023-01-08T01:42:14;11.93;;;9.33;;
428;SDS011;201;48.758;9.290;2023-01-08T01:45:01;10.70;;;8.17;;
428;SDS011;201;48.758;9.290;2023-01-08T01:47:38;9.80;;;8.40;;
428;SDS011;201;48.758;9.290;2023-01-08T01:50:15;11.83;;;9.10;;
428;SDS011;201;48.758;9.290;2023-01-08T01:52:48;10.50;;;9.47;;
428;SDS011;201;48.758;9.290;2023-01-08T01:55:27;12.13;;;7.90;;
428;SDS011;201;48.758;9.290;2023-01-08T01:58:04;11.97;;;9.60;;
428;SDS011;201;48.758;9.290;2023-01-08T02:00:41;16.70;;;8.85;;
428;SDS011;201;48.758;9.290;2023-01-08T02:03:12;11.20;;;9.25;;
428;SDS011;201;48.758;9.290;2023-01-08T02:05:45;12.07;;;8.50;;
428;SDS011;201;48.758;9.290;2023-01-08T02:08:46;13.30;;;9.80;;
428;SDS011;201;48.758;9.290;2023-01-08T02:12:02;11.83;;;9.47;;
428;SDS011;201;48.758;9.290;2023-01-08T02:20:01;16.17;;;10.68;;
428;SDS011;201;48.758;9.290;2023-01-08T02:25:25;11.50;;;9.33;;
428;SDS011;201;48.758;9.290;2023-01-08T02:28:05;13.77;;;10.50;;
428;SDS011;201;48.758;9.290;2023-01-08T02:30:36;13.17;;;9.97;;
428;SDS011;201;48.758;9.290;2023-01-08T02:33:02;13.47;;;11.43;;
428;SDS011;201;48.758;9.290;2023-01-08T02:35:38;14.27;;;11.47;;
428;SDS011;201;48.758;9.290;2023-01-08T02:38:07;13.48;;;9.85;;
428;SDS011;201;48.758;9.290;2023-01-08T02:43:25;11.93;;;9.60;;
428;SDS011;201;48.758;9.290;2023-01-08T02:46:13;12.50;;;9.40;;
428;SDS011;201;48.758;9.290;2023-01-08T02:48:46;14.23;;;11.17;;
428;SDS011;201;48.758;9.290;2023-01-08T02:51:20;11.00;;;9.05;;
428;SDS011;201;48.758;9.290;2023-01-08T02:53:52;11.33;;;10.00;;
428;SDS011;201;48.758;9.290;2023-01-08T02:56:23;14.02;;;9.98;;
428;SDS011;201;48.758;9.290;2023-01-08T02:58:58;10.65;;;8.60;;
428;SDS011;201;48.758;9.290;2023-01-08T03:01:27;12.68;;;9.10;;
428;SDS011;201;48.758;9.290;2023-01-08T03:03:57;9.50;;;8.27;;
428;SDS011;201;48.758;9.290;2023-01-08T03:06:27;9.87;;;8.10;;
428;SDS011;201;48.758;9.290;2023-01-08T03:08:53;13.13;;;9.13;;
428;SDS011;201;48.758;9.290;2023-01-08T03:11:19;10.57;;;8.20;;
428;SDS011;201;48.758;9.290;2023-01-08T03:16:22;11.83;;;9.47;;
428;SDS011;201;48.758;9.290;2023-01-08T03:18:56;12.30;;;10.20;;
428;SDS011;201;48.758;9.290;2023-01-08T03:21:35;12.40;;;9.48;;
428;SDS011;201;48.758;9.290;2023-01-08T03:24:02;10.87;;;8.30;;
428;SDS011;201;48.758;9.290;2023-01-08T03:26:30;10.07;;;8.40;;
428;SDS011;201;48.758;9.290;2023-01-08T03:28:57;10.90;;;9.20;;
428;SDS011;201;48.758;9.290;2023-01-08T03:31:25;11.17;;;8.00;;
428;SDS011;201;48.758;9.290;2023-01-08T03:33:53;10.10;;;8.43;;
428;SDS011;201;48.758;9.290;2023-01-08T03:36:21;10.20;;;7.90;;
428;SDS011;201;48.758;9.290;2023-01-08T03:38:55;10.37;;;8.60;;
428;SDS011;201;48.758;9.290;2023-01-08T03:41:25;9.83;;;8.00;;
428;SDS011;201;48.758;9.290;2023-01-08T03:43:53;10.73;;;8.67;;
428;SDS011;201;48.758;9.290;2023-01-08T03:46:22;10.43;;;7.90;;
428;SDS011;201;48.758;9.290;2023-01-08T03:48:55;9.17;;;8.00;;
428;SDS011;201;48.758;9.290;2023-01-08T03:51:23;9.83;;;7.93;;
428;SDS011;201;48.758;9.290;2023-01-08T03:53:49;8.60;;;8.10;;
428;SDS011;201;48.758;9.290;2023-01-08T03:56:16;9.40;;;7.30;;
428;SDS011;201;48.758;9.290;2023-01-08T03:58:41;10.30;;;6.93;;
428;SDS011;201;48.758;9.290;2023-01-08T04:01:07;9.80;;;8.17;;
428;SDS011;201;48.758;9.290;2023-01-08T04:03:32;11.80;;;8.93;;
428;SDS011;201;48.758;9.290;2023-01-08T04:05:58;10.80;;;8.80;;
428;SDS011;201;48.758;9.290;2023-01-08T04:08:24;9.53;;;8.20;;
428;SDS011;201;48.758;9.290;2023-01-08T04:10:50;10.67;;;8.30;;
428;SDS011;201;48.758;9.290;2023-01-08T04:13:15;10.27;;;8.40;;
428;SDS011;201;48.758;9.290;2023-01-08T04:15:45;9.23;;;8.07;;
428;SDS011;201;48.758;9.290;2023-01-08T04:18:12;9.30;;;7.40;;
428;SDS011;201;48.758;9.290;2023-01-08T04:20:38;11.23;;;8.13;;
428;SDS011;201;48.758;9.290;2023-01-08T04:23:03;11.40;;;8.30;;
428;SDS011;201;48.758;9.290;2023-01-08T04:25:28;9.53;;;7.80;;
428;SDS011;201;48.758;9.290;2023-01-08T04:27:54;9.87;;;8.00;;
428;SDS011;201;48.758;9.290;2023-01-08T04:30:19;11.53;;;9.33;;
428;SDS011;201;48.758;9.290;2023-01-08T04:32:45;10.90;;;9.17;;
428;SDS011;201;48.758;9.290;2023-01-08T04:35:10;10.90;;;9.20;;
428;SDS011;201;48.758;9.290;2023-01-08T04:37:36;10.40;;;9.90;;
428;SDS011;201;48.758;9.290;2023-01-08T04:40:01;10.50;;;8.47;;
428;SDS011;201;48.758;9.290;2023-01-08T04:42:27;11.07;;;9.33;;
428;SDS011;201;48.758;9.290;2023-01-08T04:44:53;10.60;;;9.00;;
428;SDS011;201;48.758;9.290;2023-01-08T04:47:18;9.87;;;8.37;;
428;SDS011;201;48.758;9.290;2023-01-08T04:49:44;9.40;;;8.07;;
428;SDS011;201;48.758;9.290;2023-01-08T04:52:09;8.93;;;6.53;;
428;SDS011;201;48.758;9.290;2023-01-08T04:54:35;6.87;;;5.70;;
428;SDS011;201;48.758;9.290;2023-01-08T04:57:00;6.70;;;5.77;;
428;SDS011;201;48.758;9.290;2023-01-08T04:59:26;8.50;;;6.27;;
428;SDS011;201;48.758;9.290;2023-01-08T05:01:51;10.70;;;7.20;;
428;SDS011;201;48.758;9.290;2023-01-08T05:04:17;9.03;;;7.63;;
428;SDS011;201;48.758;9.290;2023-01-08T05:06:42;6.60;;;5.10;;
428;SDS011;201;48.758;9.290;2023-01-08T05:09:08;5.67;;;4.33;;
428;SDS011;201;48.758;9.290;2023-01-08T05:11:33;4.37;;;3.30;;
428;SDS011;201;48.758;9.290;2023-01-08T05:14:02;9.90;;;3.73;;
428;SDS011;201;48.758;9.290;2023-01-08T05:16:28;4.40;;;3.80;;
428;SDS011;201;48.758;9.290;2023-01-08T05:18:53;3.53;;;3.33;;
428;SDS011;201;48.758;9.290;2023-01-08T05:21:19;4.27;;;3.03;;
428;SDS011;201;48.758;9.290;2023-01-08T05:23:45;5.33;;;3.20;;
428;SDS011;201;48.758;9.290;2023-01-08T05:26:14;2.77;;;2.20;;
428;SDS011;201;48.758;9.290;2023-01-08T05:28:40;2.67;;;2.37;;
428;SDS011;201;48.758;9.290;2023-01-08T05:31:06;1.80;;;1.67;;
428;SDS011;201;48.758;9.290;2023-01-08T05:33:31;1.83;;;1.70;;
428;SDS011;201;48.758;9.290;2023-01-08T05:35:57;2.37;;;2.17;;
428;SDS011;201;48.758;9.290;2023-01-08T05:38:22;2.40;;;1.47;;
428;SDS011;201;48.758;9.290;2023-01-08T05:40:50;1.37;;;1.33;;
428;SDS011;201;48.758;9.290;2023-01-08T05:43:16;2.70;;;1.87;;
428;SDS011;201;48.758;9.290;2023-01-08T05:45:42;1.77;;;1.40;;
428;SDS011;201;48.758;9.290;2023-01-08T05:48:07;2.33;;;1.63;;
428;SDS011;201;48.758;9.290;2023-01-08T05:50:33;7.03;;;1.90;;
428;SDS011;201;48.758;9.290;2023-01-08T05:52:59;3.03;;;1.77;;
428;SDS011;201;48.758;9.290;2023-01-08T05:55:25;1.77;;;1.47;;
428;SDS011;201;48.758;9.290;2023-01-08T05:57:50;2.80;;;1.97;;
428;SDS011;201;48.758;9.290;2023-01-08T06:00:16;2.90;;;1.70;;
428;SDS011;201;48.758;9.290;2023-01-08T06:02:45;2.97;;;1.80;;
428;SDS011;201;48.758;9.290;2023-01-08T06:05:11;1.30;;;1.20;;
428;SDS011;201;48.758;9.290;2023-01-08T06:07:37;1.67;;;1.57;;
428;SDS011;201;48.758;9.290;2023-01-08T06:10:03;3.50;;;1.50;;
428;SDS011;201;48.758;9.290;2023-01-08T06:12:28;3.03;;;2.30;;
428;SDS011;201;48.758;9.290;2023-01-08T06:14:54;2.00;;;1.60;;
428;SDS011;201;48.758;9.290;2023-01-08T06:17:19;2.53;;;1.63;;
428;SDS011;201;48.758;9.290;2023-01-08T06:19:45;1.97;;;1.63;;
428;SDS011;201;48.758;9.290;2023-01-08T06:22:12;1.50;;;1.50;;
428;SDS011;201;48.758;9.290;2023-01-08T06:24:37;1.33;;;1.30;;
428;SDS011;201;48.758;9.290;2023-01-08T06:27:03;1.63;;;1.13;;
428;SDS011;201;48.758;9.290;2023-01-08T06:29:28;1.90;;;1.10;;
428;SDS011;201;48.758;9.290;2023-01-08T06:31:54;1.77;;;1.17;;
428;SDS011;201;48.758;9.290;2023-01-08T06:34:20;1.70;;;1.20;;
428;SDS011;201;48.758;9.290;2023-01-08T06:36:45;1.50;;;1.23;;
428;SDS011;201;48.758;9.290;2023-01-08T06:39:11;1.17;;;1.13;;
428;SDS011;201;48.758;9.290;2023-01-08T06:41:37;2.60;;;1.80;;
428;SDS011;201;48.758;9.290;2023-01-08T06:44:02;1.67;;;1.40;;
428;SDS011;201;48.758;9.290;2023-01-08T06:46:28;1.77;;;1.17;;
428;SDS011;201;48.758;9.290;2023-01-08T06:48:54;0.97;;;0.90;;
428;SDS011;201;48.758;9.290;2023-01-08T06:51:20;0.97;;;0.77;;
428;SDS011;201;48.758;9.290;2023-01-08T06:53:48;0.70;;;0.60;;
428;SDS011;201;48.758;9.290;2023-01-08T06:56:13;1.53;;;1.23;;
428;SDS011;201;48.758;9.290;2023-01-08T06:58:39;1.60;;;1.50;;
428;SDS011;201;48.758;9.290;2023-01-08T07:01:05;1.73;;;1.30;;
428;SDS011;201;48.758;9.290;2023-01-08T07:03:30;5.60;;;4.30;;
428;SDS011;201;48.758;9.290;2023-01-08T07:05:56;2.90;;;2.20;;
428;SDS011;201;48.758;9.290;2023-01-08T07:08:22;5.70;;;4.90;;
428;SDS011;201;48.758;9.290;2023-01-08T07:10:47;2.73;;;2.47;;
428;SDS011;201;48.758;9.290;2023-01-08T07:13:13;3.50;;;1.30;;
428;SDS011;201;48.758;9.290;2023-01-08T07:15:39;2.57;;;1.50;;
428;SDS011;201;48.758;9.290;2023-01-08T07:18:06;1.60;;;1.03;;
428;SDS011;201;48.758;9.290;2023-01-08T07:20:33;1.70;;;1.30;;
428;SDS011;201;48.758;9.290;2023-01-08T07:23:00;1.83;;;1.33;;
428;SDS011;201;48.758;9.290;2023-01-08T07:25:26;1.53;;;1.30;;
428;SDS011;201;48.758;9.290;2023-01-08T07:27:51;2.70;;;1.30;;
428;SDS011;201;48.758;9.290;2023-01-08T07:30:17;1.40;;;1.10;;
428;SDS011;201;48.758;9.290;2023-01-08T07:32:42;1.57;;;1.10;;
428;SDS011;201;48.758;9.290;2023-01-08T07:35:08;1.33;;;1.23;;
428;SDS011;201;48.758;9.290;2023-01-08T07:37:33;1.83;;;1.20;;
428;SDS011;201;48.758;9.290;2023-01-08T07:40:03;2.50;;;1.27;;
428;SDS011;201;48.758;9.290;2023-01-08T07:42:28;1.10;;;0.90;;
428;SDS011;201;48.758;9.290;2023-01-08T07:44:54;1.60;;;1.20;;
428;SDS011;201;48.758;9.290;2023-01-08T07:47:19;1.10;;;1.00;;
428;SDS011;201;48.758;9.290;2023-01-08T07:49:45;0.90;;;0.90;;
428;SDS011;201;48.758;9.290;2023-01-08T07:52:10;1.30;;;0.83;;
428;SDS011;201;48.758;9.290;2023-01-08T07:54:36;3.60;;;1.33;;
428;SDS011;201;48.758;9.290;2023-01-08T07:57:01;1.30;;;1.00;;
428;SDS011;201;48.758;9.290;2023-01-08T07:59:27;2.67;;;1.70;;
428;SDS011;201;48.758;9.290;2023-01-08T08:01:52;1.10;;;1.00;;
428;SDS011;201;48.758;9.290;2023-01-08T08:04:18;1.00;;;0.70;;
428;SDS011;201;48.758;9.290;2023-01-08T08:06:43;1.17;;;1.00;;
428;SDS011;201;48.758;9.290;2023-01-08T08:09:09;2.40;;;1.13;;
428;SDS011;201;48.758;9.290;2023-01-08T08:11:34;1.90;;;1.20;;
428;SDS011;201;48.758;9.290;2023-01-08T08:14:02;1.20;;;0.90;;
428;SDS011;201;48.758;9.290;2023-01-08T08:16:28;2.27;;;1.33;;
428;SDS011;201;48.758;9.290;2023-01-08T08:18:54;1.27;;;1.13;;
428;SDS011;201;48.758;9.290;2023-01-08T08:21:22;1.63;;;1.03;;
428;SDS011;201;48.758;9.290;2023-01-08T08:23:48;1.07;;;0.90;;
428;SDS011;201;48.758;9.290;2023-01-08T08:26:13;1.30;;;1.10;;
428;SDS011;201;48.758;9.290;2023-01-08T08:28:39;5.20;;;2.03;;
428;SDS011;201;48.758;9.290;2023-01-08T08:31:04;2.57;;;1.80;;
428;SDS011;201;48.758;9.290;2023-01-08T08:33:30;1.50;;;1.27;;
428;SDS011;201;48.758;9.290;2023-01-08T08:35:55;1.20;;;1.10;;
428;SDS011;201;48.758;9.290;2023-01-08T08:38:21;1.63;;;1.33;;
428;SDS011;201;48.758;9.290;2023-01-08T08:40:46;2.50;;;1.13;;
428;SDS011;201;48.758;9.290;2023-01-08T08:43:12;1.27;;;1.13;;
428;SDS011;201;48.758;9.290;2023-01-08T08:45:37;1.20;;;1.17;;
428;SDS011;201;48.758;9.290;2023-01-08T08:48:06;1.83;;;1.10;;
428;SDS011;201;48.758;9.290;2023-01-08T08:50:33;2.10;;;1.17;;
428;SDS011;201;48.758;9.290;2023-01-08T08:52:59;1.30;;;1.13;;
428;SDS011;201;48.758;9.290;2023-01-08T08:55:28;2.33;;;1.30;;
428;SDS011;201;48.758;9.290;2023-01-08T08:57:54;0.90;;;0.83;;
428;SDS011;201;48.758;9.290;2023-01-08T09:00:28;1.47;;;1.17;;
428;SDS011;201;48.758;9.290;2023-01-08T09:02:53;1.80;;;1.33;;
428;SDS011;201;48.758;9.290;2023-01-08T09:05:19;2.17;;;1.43;;
428;SDS011;201;48.758;9.290;2023-01-08T09:07:44;1.53;;;0.90;;
428;SDS011;201;48.758;9.290;2023-01-08T09:10:10;1.13;;;1.13;;
428;SDS011;201;48.758;9.290;2023-01-08T09:12:35;1.10;;;1.00;;
428;SDS011;201;48.758;9.290;2023-01-08T09:15:01;1.50;;;0.90;;
428;SDS011;201;48.758;9.290;2023-01-08T09:17:26;1.90;;;0.97;;
428;SDS011;201;48.758;9.290;2023-01-08T09:19:52;1.37;;;0.93;;
428;SDS011;201;48.758;9.290;2023-01-08T09:22:17;2.07;;;1.50;;
428;SDS011;201;48.758;9.290;2023-01-08T09:24:43;1.73;;;1.70;;
428;SDS011;201;48.758;9.290;2023-01-08T09:27:09;1.53;;;1.13;;
428;SDS011;201;48.758;9.290;2023-01-08T09:29:34;5.13;;;1.60;;
428;SDS011;201;48.758;9.290;2023-01-08T09:32:00;1.40;;;1.20;;
428;SDS011;201;48.758;9.290;2023-01-08T09:34:26;1.50;;;1.13;;
428;SDS011;201;48.758;9.290;2023-01-08T09:36:51;2.60;;;0.93;;
428;SDS011;201;48.758;9.290;2023-01-08T09:39:17;1.00;;;0.80;;
428;SDS011;201;48.758;9.290;2023-01-08T09:41:44;1.33;;;0.80;;
428;SDS011;201;48.758;9.290;2023-01-08T09:44:14;1.10;;;1.03;;
428;SDS011;201;48.758;9.290;2023-01-08T09:46:44;1.07;;;0.90;;
428;SDS011;201;48.758;9.290;2023-01-08T09:49:13;1.27;;;1.13;;
428;SDS011;201;48.758;9.290;2023-01-08T09:51:44;1.93;;;1.43;;
428;SDS011;201;48.758;9.290;2023-01-08T09:54:12;1.40;;;1.30;;
428;SDS011;201;48.758;9.290;2023-01-08T09:56:40;1.30;;;1.10;;
428;SDS011;201;48.758;9.290;2023-01-08T09:59:06;1.10;;;0.97;;
428;SDS011;201;48.758;9.290;2023-01-08T10:01:37;2.83;;;1.37;;
428;SDS011;201;48.758;9.290;2023-01-08T10:04:17;2.30;;;1.43;;
428;SDS011;201;48.758;9.290;2023-01-08T10:06:55;1.30;;;1.20;;
428;SDS011;201;48.758;9.290;2023-01-08T10:09:25;1.03;;;1.00;;
428;SDS011;201;48.758;9.290;2023-01-08T10:11:53;0.90;;;0.77;;
428;SDS011;201;48.758;9.290;2023-01-08T10:14:30;1.57;;;1.17;;
428;SDS011;201;48.758;9.290;2023-01-08T10:17:00;1.30;;;0.80;;
428;SDS011;201;48.758;9.290;2023-01-08T10:19:29;1.60;;;1.10;;
428;SDS011;201;48.758;9.290;2023-01-08T10:21:55;1.57;;;1.27;;
428;SDS011;201;48.758;9.290;2023-01-08T10:24:31;1.53;;;1.20;;
428;SDS011;201;48.758;9.290;2023-01-08T10:27:12;0.80;;;0.70;;
428;SDS011;201;48.758;9.290;2023-01-08T10:29:39;1.20;;;1.10;;
428;SDS011;201;48.758;9.290;2023-01-08T10:32:11;1.50;;;1.10;;
428;SDS011;201;48.758;9.290;2023-01-08T10:34:48;2.00;;;1.80;;
428;SDS011;201;48.758;9.290;2023-01-08T10:37:16;2.00;;;0.80;;
428;SDS011;201;48.758;9.290;2023-01-08T10:42:47;1.53;;;0.87;;
428;SDS011;201;48.758;9.290;2023-01-08T10:45:17;0.80;;;0.80;;
428;SDS011;201;48.758;9.290;2023-01-08T10:47:47;1.20;;;0.70;;
428;SDS011;201;48.758;9.290;2023-01-08T10:50:17;1.33;;;0.97;;
428;SDS011;201;48.758;9.290;2023-01-08T10:52:56;1.10;;;1.00;;
428;SDS011;201;48.758;9.290;2023-01-08T10:55:24;1.50;;;1.00;;
428;SDS011;201;48.758;9.290;2023-01-08T10:57:58;1.53;;;0.90;;
428;SDS011;201;48.758;9.290;2023-01-08T11:00:30;2.60;;;1.00;;
428;SDS011;201;48.758;9.290;2023-01-08T11:02:59;1.10;;;0.97;;
428;SDS011;201;48.758;9.290;2023-01-08T11:05:39;1.07;;;0.60;;
428;SDS011;201;48.758;9.290;2023-01-08T11:08:07;2.90;;;2.27;;
428;SDS011;201;48.758;9.290;2023-01-08T11:10:42;3.43;;;1.80;;
428;SDS011;201;48.758;9.290;2023-01-08T11:13:19;1.23;;;0.80;;
428;SDS011;201;48.758;9.290;2023-01-08T11:15:45;0.80;;;0.80;;
428;SDS011;201;48.758;9.290;2023-01-08T11:18:22;0.73;;;0.63;;
428;SDS011;201;48.758;9.290;2023-01-08T11:20:49;0.87;;;0.60;;
428;SDS011;201;48.758;9.290;2023-01-08T11:23:20;1.10;;;0.73;;
428;SDS011;201;48.758;9.290;2023-01-08T11:25:53;0.80;;;0.73;;
428;SDS011;201;48.758;9.290;2023-01-08T11:31:22;1.07;;;0.70;;
428;SDS011;201;48.758;9.290;2023-01-08T11:34:01;1.00;;;0.63;;
428;SDS011;201;48.758;9.290;2023-01-08T11:36:35;0.93;;;0.83;;
428;SDS011;201;48.758;9.290;2023-01-08T11:39:08;1.97;;;0.97;;
428;SDS011;201;48.758;9.290;2023-01-08T11:52:12;0.80;;;0.70;;
428;SDS011;201;48.758;9.290;2023-01-08T11:57:58;1.43;;;1.00;;
428;SDS011;201;48.758;9.290;2023-01-08T12:00:53;1.00;;;0.60;;
428;SDS011;201;48.758;9.290;2023-01-08T12:06:31;1.70;;;0.70;;
428;SDS011;201;48.758;9.290;2023-01-08T12:09:20;0.60;;;0.50;;
428;SDS011;201;48.758;9.290;2023-01-08T12:12:12;0.60;;;0.50;;
428;SDS011;201;48.758;9.290;2023-01-08T12:26:14;0.60;;;0.40;;
428;SDS011;201;48.758;9.290;2023-01-08T12:31:43;0.90;;;0.60;;
428;SDS011;201;48.758;9.290;2023-01-08T12:37:05;1.03;;;0.83;;
428;SDS011;201;48.758;9.290;2023-01-08T12:39:44;2.60;;;1.13;;
428;SDS011;201;48.758;9.290;2023-01-08T12:42:18;0.80;;;0.50;;
428;SDS011;201;48.758;9.290;2023-01-08T12:44:50;2.83;;;0.53;;
428;SDS011;201;48.758;9.290;2023-01-08T12:47:18;1.10;;;0.53;;
428;SDS011;201;48.758;9.290;2023-01-08T12:49:48;0.70;;;0.60;;
428;SDS011;201;48.758;9.290;2023-01-08T12:52:29;0.70;;;0.47;;
428;SDS011;201;48.758;9.290;2023-01-08T12:55:26;0.90;;;0.50;;
428;SDS011;201;48.758;9.290;2023-01-08T13:01:05;0.70;;;0.50;;
428;SDS011;201;48.758;9.290;2023-01-08T13:03:56;0.80;;;0.60;;
428;SDS011;201;48.758;9.290;2023-01-08T13:06:22;1.50;;;1.00;;
428;SDS011;201;48.758;9.290;2023-01-08T13:08:50;2.30;;;0.80;;
428;SDS011;201;48.758;9.290;2023-01-08T13:11:28;0.83;;;0.57;;
428;SDS011;201;48.758;9.290;2023-01-08T13:14:05;1.00;;;0.50;;
428;SDS011;201;48.758;9.290;2023-01-08T13:16:39;0.70;;;0.60;;
428;SDS011;201;48.758;9.290;2023-01-08T13:19:25;1.03;;;0.60;;
428;SDS011;201;48.758;9.290;2023-01-08T13:21:53;0.97;;;0.97;;
428;SDS011;201;48.758;9.290;2023-01-08T13:29:55;1.00;;;0.80;;
428;SDS011;201;48.758;9.290;2023-01-08T13:37:45;2.30;;;1.70;;
428;SDS011;201;48.758;9.290;2023-01-08T13:45:43;1.10;;;0.80;;
428;SDS011;201;48.758;9.290;2023-01-08T13:48:24;1.00;;;0.90;;
428;SDS011;201;48.758;9.290;2023-01-08T13:50:56;0.87;;;0.60;;
428;SDS011;201;48.758;9.290;2023-01-08T13:53:21;0.80;;;0.50;;
428;SDS011;201;48.758;9.290;2023-01-08T13:55:55;1.73;;;0.90;;
428;SDS011;201;48.758;9.290;2023-01-08T13:58:25;1.10;;;0.77;;
428;SDS011;201;48.758;9.290;2023-01-08T14:00:54;0.90;;;0.63;;
428;SDS011;201;48.758;9.290;2023-01-08T14:03:21;1.17;;;0.80;;
428;SDS011;201;48.758;9.290;2023-01-08T14:05:50;2.40;;;0.83;;
428;SDS011;201;48.758;9.290;2023-01-08T14:08:21;0.70;;;0.50;;
428;SDS011;201;48.758;9.290;2023-01-08T14:10:47;1.43;;;0.63;;
428;SDS011;201;48.758;9.290;2023-01-08T14:13:13;0.80;;;0.50;;
428;SDS011;201;48.758;9.290;2023-01-08T14:15:41;1.20;;;0.67;;
428;SDS011;201;48.758;9.290;2023-01-08T14:18:07;1.27;;;0.83;;
428;SDS011;201;48.758;9.290;2023-01-08T14:20:36;0.90;;;0.60;;
428;SDS011;201;48.758;9.290;2023-01-08T14:23:11;1.27;;;0.70;;
428;SDS011;201;48.758;9.290;2023-01-08T14:25:39;0.80;;;0.50;;
428;SDS011;201;48.758;9.290;2023-01-08T14:28:05;1.00;;;0.77;;
428;SDS011;201;48.758;9.290;2023-01-08T14:30:31;1.00;;;0.80;;
428;SDS011;201;48.758;9.290;2023-01-08T14:32:57;0.90;;;0.70;;
428;SDS011;201;48.758;9.290;2023-01-08T14:35:26;1.50;;;0.93;;
428;SDS011;201;48.758;9.290;2023-01-08T14:37:57;1.20;;;0.80;;
428;SDS011;201;48.758;9.290;2023-01-08T14:40:28;0.87;;;0.63;;
428;SDS011;201;48.758;9.290;2023-01-08T14:42:55;1.97;;;1.03;;
428;SDS011;201;48.758;9.290;2023-01-08T14:45:24;1.60;;;1.17;;
428;SDS011;201;48.758;9.290;2023-01-08T14:47:52;0.77;;;0.63;;
428;SDS011;201;48.758;9.290;2023-01-08T14:50:27;1.00;;;0.90;;
428;SDS011;201;48.758;9.290;2023-01-08T14:52:56;2.33;;;1.50;;
428;SDS011;201;48.758;9.290;2023-01-08T14:55:31;1.00;;;0.70;;
428;SDS011;201;48.758;9.290;2023-01-08T14:57:59;2.40;;;1.00;;
428;SDS011;201;48.758;9.290;2023-01-08T15:00:26;0.67;;;0.63;;
428;SDS011;201;48.758;9.290;2023-01-08T15:02:54;1.70;;;0.90;;
428;SDS011;201;48.758;9.290;2023-01-08T15:07:53;3.50;;;0.90;;
428;SDS011;201;48.758;9.290;2023-01-08T15:10:34;1.80;;;0.80;;
428;SDS011;201;48.758;9.290;2023-01-08T15:13:00;1.20;;;0.93;;
428;SDS011;201;48.758;9.290;2023-01-08T15:15:27;1.00;;;0.70;;
428;SDS011;201;48.758;9.290;2023-01-08T15:17:54;0.83;;;0.80;;
428;SDS011;201;48.758;9.290;2023-01-08T15:20:21;1.00;;;0.93;;
428;SDS011;201;48.758;9.290;2023-01-08T15:22:52;2.90;;;1.10;;
428;SDS011;201;48.758;9.290;2023-01-08T15:25:20;1.87;;;1.40;;
428;SDS011;201;48.758;9.290;2023-01-08T15:27:51;1.70;;;1.10;;
428;SDS011;201;48.758;9.290;2023-01-08T15:30:25;0.93;;;0.73;;
428;SDS011;201;48.758;9.290;2023-01-08T15:33:04;1.53;;;1.00;;
428;SDS011;201;48.758;9.290;2023-01-08T15:35:41;0.93;;;0.90;;
428;SDS011;201;48.758;9.290;2023-01-08T15:38:06;1.10;;;0.90;;
428;SDS011;201;48.758;9.290;2023-01-08T15:40:32;2.50;;;1.13;;
428;SDS011;201;48.758;9.290;2023-01-08T15:42:58;1.03;;;0.70;;
428;SDS011;201;48.758;9.290;2023-01-08T15:45:40;0.80;;;0.60;;
428;SDS011;201;48.758;9.290;2023-01-08T15:48:08;3.30;;;1.00;;
428;SDS011;201;48.758;9.290;2023-01-08T15:50:35;1.47;;;0.80;;
428;SDS011;201;48.758;9.290;2023-01-08T15:53:04;1.07;;;0.80;;
428;SDS011;201;48.758;9.290;2023-01-08T15:55:34;1.23;;;0.97;;
428;SDS011;201;48.758;9.290;2023-01-08T15:58:01;2.97;;;1.30;;
428;SDS011;201;48.758;9.290;2023-01-08T16:00:27;2.13;;;1.10;;
428;SDS011;201;48.758;9.290;2023-01-08T16:02:53;1.80;;;1.13;;
428;SDS011;201;48.758;9.290;2023-01-08T16:07:46;1.57;;;1.00;;
428;SDS011;201;48.758;9.290;2023-01-08T16:10:12;2.17;;;1.40;;
428;SDS011;201;48.758;9.290;2023-01-08T16:12:39;1.80;;;1.27;;
428;SDS011;201;48.758;9.290;2023-01-08T16:15:04;2.23;;;1.30;;
428;SDS011;201;48.758;9.290;2023-01-08T16:17:32;1.27;;;1.03;;
428;SDS011;201;48.758;9.290;2023-01-08T16:19:59;4.17;;;1.30;;
428;SDS011;201;48.758;9.290;2023-01-08T16:22:24;1.30;;;1.23;;
428;SDS011;201;48.758;9.290;2023-01-08T16:24:50;2.07;;;1.30;;
428;SDS011;201;48.758;9.290;2023-01-08T16:27:15;1.70;;;1.40;;
428;SDS011;201;48.758;9.290;2023-01-08T16:29:41;1.33;;;1.27;;
428;SDS011;201;48.758;9.290;2023-01-08T16:32:06;2.97;;;1.50;;
428;SDS011;201;48.758;9.290;2023-01-08T16:34:33;3.13;;;1.47;;
428;SDS011;201;48.758;9.290;2023-01-08T16:36:58;2.17;;;1.47;;
428;SDS011;201;48.758;9.290;2023-01-08T16:39:24;2.97;;;1.80;;
428;SDS011;201;48.758;9.290;2023-01-08T16:41:49;2.30;;;1.37;;
428;SDS011;201;48.758;9.290;2023-01-08T16:44:19;5.37;;;1.33;;
428;SDS011;201;48.758;9.290;2023-01-08T16:46:46;1.90;;;1.80;;
428;SDS011;201;48.758;9.290;2023-01-08T16:49:12;1.33;;;1.17;;
428;SDS011;201;48.758;9.290;2023-01-08T16:51:38;3.73;;;2.47;;
428;SDS011;201;48.758;9.290;2023-01-08T16:54:04;5.47;;;3.73;;
428;SDS011;201;48.758;9.290;2023-01-08T16:56:30;7.30;;;5.00;;
428;SDS011;201;48.758;9.290;2023-01-08T16:58:55;6.00;;;4.40;;
428;SDS011;201;48.758;9.290;2023-01-08T17:01:20;7.73;;;5.40;;
428;SDS011;201;48.758;9.290;2023-01-08T17:03:46;9.20;;;7.40;;
428;SDS011;201;48.758;9.290;2023-01-08T17:06:13;11.40;;;7.20;;
428;SDS011;201;48.758;9.290;2023-01-08T17:08:39;8.77;;;5.97;;